createdAt,value
2022-10-02T00:00:05.069Z,15.30
2022-10-02T00:02:52.329Z,15.30
2022-10-02T00:05:24.123Z,15.30
2022-10-02T00:08:04.966Z,15.30
2022-10-02T00:10:35.569Z,15.30
2022-10-02T00:13:07.321Z,15.30
2022-10-02T00:15:37.106Z,15.30
2022-10-02T00:18:11.928Z,15.20
2022-10-02T00:20:59.567Z,15.20
2022-10-02T00:23:39.630Z,15.20
2022-10-02T00:26:18.872Z,15.20
2022-10-02T00:28:48.378Z,15.20
2022-10-02T00:31:42.326Z,15.20
2022-10-02T00:34:36.018Z,15.20
2022-10-02T00:37:27.394Z,15.30
2022-10-02T00:40:27.912Z,15.30
2022-10-02T00:43:23.847Z,15.30
2022-10-02T00:46:02.557Z,15.30
2022-10-02T00:48:44.431Z,15.30
2022-10-02T00:51:52.268Z,15.30
2022-10-02T00:54:21.631Z,15.40
2022-10-02T00:56:57.118Z,15.40
2022-10-02T00:59:29.442Z,15.40
2022-10-02T01:02:10.496Z,15.40
2022-10-02T01:04:38.866Z,15.40
2022-10-02T01:07:08.760Z,15.40
2022-10-02T01:09:36.250Z,15.40
2022-10-02T01:12:03.589Z,15.50
2022-10-02T01:14:34.770Z,15.50
2022-10-02T01:17:02.328Z,15.50
2022-10-02T01:19:37.433Z,15.50
2022-10-02T01:22:15.181Z,15.40
2022-10-02T01:24:51.913Z,15.40
2022-10-02T01:27:18.949Z,15.50
2022-10-02T01:29:50.278Z,15.50
2022-10-02T01:32:18.464Z,15.50
2022-10-02T01:34:46.608Z,15.50
2022-10-02T01:37:13.393Z,15.50
2022-10-02T01:39:40.433Z,15.50
2022-10-02T01:42:07.017Z,15.50
2022-10-02T01:44:33.897Z,15.50
2022-10-02T01:47:05.959Z,15.40
2022-10-02T01:50:03.739Z,15.40
2022-10-02T01:53:05.414Z,15.40
2022-10-02T01:55:47.582Z,15.50
2022-10-02T01:58:34.830Z,15.40
2022-10-02T02:01:28.838Z,15.40
2022-10-02T02:04:05.414Z,15.40
2022-10-02T02:06:59.306Z,15.40
2022-10-02T02:09:53.917Z,15.40
2022-10-02T02:12:25.498Z,15.40
2022-10-02T02:15:00.129Z,15.40
2022-10-02T02:17:34.240Z,15.40
2022-10-02T02:20:13.607Z,15.40
2022-10-02T02:22:45.473Z,15.30
2022-10-02T02:25:27.948Z,15.40
2022-10-02T02:27:58.683Z,15.40
2022-10-02T02:30:25.586Z,15.40
2022-10-02T02:33:01.326Z,15.40
2022-10-02T02:35:33.921Z,15.40
2022-10-02T02:38:05.729Z,15.40
2022-10-02T02:40:36.901Z,15.40
2022-10-02T02:43:08.875Z,15.40
2022-10-02T02:45:38.850Z,15.40
2022-10-02T02:48:11.670Z,15.40
2022-10-02T02:50:46.984Z,15.40
2022-10-02T02:53:19.013Z,15.40
2022-10-02T02:55:50.130Z,15.40
2022-10-02T02:58:23.865Z,15.40
2022-10-02T03:00:50.800Z,15.40
2022-10-02T03:03:17.561Z,15.40
2022-10-02T03:05:49.807Z,15.50
2022-10-02T03:08:23.986Z,15.50
2022-10-02T03:11:31.782Z,15.50
2022-10-02T03:13:58.805Z,15.50
2022-10-02T03:16:40.027Z,15.50
2022-10-02T03:19:11.700Z,15.50
2022-10-02T03:21:49.832Z,15.50
2022-10-02T03:24:25.546Z,15.50
2022-10-02T03:27:13.183Z,15.50
2022-10-02T03:30:02.600Z,15.60
2022-10-02T03:32:30.939Z,15.60
2022-10-02T03:34:59.001Z,15.60
2022-10-02T03:37:25.975Z,15.50
2022-10-02T03:39:53.732Z,15.50
2022-10-02T03:42:25.786Z,15.50
2022-10-02T03:44:52.361Z,15.60
2022-10-02T03:47:18.955Z,15.60
2022-10-02T03:49:46.326Z,15.60
2022-10-02T03:52:18.499Z,15.60
2022-10-02T03:54:46.038Z,15.60
2022-10-02T03:57:19.407Z,15.60
2022-10-02T04:00:01.708Z,15.70
2022-10-02T04:02:50.284Z,15.70
2022-10-02T04:05:22.896Z,15.60
2022-10-02T04:07:55.927Z,15.70
2022-10-02T04:10:36.635Z,15.70
2022-10-02T04:13:11.719Z,15.70
2022-10-02T04:15:47.187Z,15.70
2022-10-02T04:18:33.932Z,15.70
2022-10-02T04:21:13.530Z,15.70
2022-10-02T04:23:49.848Z,15.60
2022-10-02T04:26:30.436Z,15.60
2022-10-02T04:29:05.366Z,15.60
2022-10-02T04:31:32.198Z,15.60
2022-10-02T04:34:03.083Z,15.60
2022-10-02T04:36:29.630Z,15.60
2022-10-02T04:39:20.928Z,15.60
2022-10-02T04:42:07.496Z,15.50
2022-10-02T04:44:54.237Z,15.50
2022-10-02T04:47:32.760Z,15.50
2022-10-02T04:50:31.634Z,15.40
2022-10-02T04:53:16.265Z,15.40
2022-10-02T04:55:59.616Z,15.30
2022-10-02T04:58:40.738Z,15.30
2022-10-02T05:01:20.859Z,15.20
2022-10-02T05:04:17.706Z,15.10
2022-10-02T05:07:02.785Z,15.10
2022-10-02T05:09:40.059Z,15.10
2022-10-02T05:12:17.053Z,15.10
2022-10-02T05:14:59.452Z,15.20
2022-10-02T05:17:56.817Z,15.20
2022-10-02T05:20:49.434Z,15.20
2022-10-02T05:23:17.105Z,15.20
2022-10-02T05:26:19.806Z,15.20
2022-10-02T05:28:59.451Z,15.20
2022-10-02T05:31:26.142Z,15.30
2022-10-02T05:34:11.780Z,15.30
2022-10-02T05:36:43.908Z,15.30
2022-10-02T05:39:39.355Z,15.30
2022-10-02T05:42:20.573Z,15.30
2022-10-02T05:44:56.192Z,15.40
2022-10-02T05:47:42.684Z,15.40
2022-10-02T05:50:12.417Z,15.40
2022-10-02T05:52:57.833Z,15.40
2022-10-02T05:55:46.130Z,15.30
2022-10-02T05:58:41.040Z,15.30
2022-10-02T06:01:10.591Z,15.30
2022-10-02T06:03:55.740Z,15.30
2022-10-02T06:06:34.081Z,15.40
2022-10-02T06:09:09.612Z,15.40
2022-10-02T06:11:44.954Z,15.40
2022-10-02T06:14:34.071Z,15.40
2022-10-02T06:17:09.075Z,15.40
2022-10-02T06:20:12.503Z,15.30
2022-10-02T06:22:59.793Z,15.30
2022-10-02T06:25:29.833Z,15.20
2022-10-02T06:28:23.824Z,15.30
2022-10-02T06:31:03.682Z,15.30
2022-10-02T06:33:33.146Z,15.20
2022-10-02T06:36:05.654Z,15.20
2022-10-02T06:39:10.904Z,15.20
2022-10-02T06:41:50.524Z,15.30
2022-10-02T06:44:36.979Z,15.30
2022-10-02T06:47:12.587Z,15.30
2022-10-02T06:49:46.291Z,15.40
2022-10-02T06:52:16.322Z,15.40
2022-10-02T06:55:22.998Z,15.40
2022-10-02T06:58:11.655Z,15.40
2022-10-02T07:00:58.376Z,15.40
2022-10-02T07:03:40.979Z,15.50
2022-10-02T07:06:24.005Z,15.50
2022-10-02T07:09:25.915Z,15.50
2022-10-02T07:12:06.004Z,15.50
2022-10-02T07:15:07.657Z,15.60
2022-10-02T07:18:00.418Z,15.70
2022-10-02T07:20:46.362Z,15.70
2022-10-02T07:23:21.559Z,15.70
2022-10-02T07:26:02.778Z,15.70
2022-10-02T07:28:50.199Z,15.80
2022-10-02T07:31:46.061Z,15.90
2022-10-02T07:34:41.533Z,16.00
2022-10-02T07:37:23.747Z,16.00
2022-10-02T07:40:21.142Z,16.00
2022-10-02T07:43:15.886Z,16.00
2022-10-02T07:46:10.150Z,16.00
2022-10-02T07:49:06.117Z,16.10
2022-10-02T07:52:02.386Z,16.10
2022-10-02T07:54:53.226Z,16.10
2022-10-02T07:57:39.439Z,16.20
2022-10-02T08:00:28.298Z,16.20
2022-10-02T08:03:16.117Z,16.30
2022-10-02T08:05:58.334Z,16.30
2022-10-02T08:09:05.743Z,16.30
2022-10-02T08:11:38.924Z,16.40
2022-10-02T08:14:15.262Z,16.40
2022-10-02T08:16:54.714Z,16.50
2022-10-02T08:19:39.410Z,16.60
2022-10-02T08:22:36.555Z,16.60
2022-10-02T08:25:26.802Z,16.70
2022-10-02T08:28:05.763Z,16.70
2022-10-02T08:30:32.448Z,16.80
2022-10-02T08:32:59.802Z,16.80
2022-10-02T08:35:41.339Z,16.80
2022-10-02T08:38:25.145Z,16.90
2022-10-02T08:41:19.760Z,16.90
2022-10-02T08:44:07.483Z,17.00
2022-10-02T08:47:11.433Z,17.00
2022-10-02T08:49:50.549Z,17.00
2022-10-02T08:52:29.543Z,17.00
2022-10-02T08:54:59.006Z,17.10
2022-10-02T08:57:47.557Z,17.10
2022-10-02T09:00:23.051Z,17.10
2022-10-02T09:03:17.249Z,17.20
2022-10-02T09:06:11.887Z,17.30
2022-10-02T09:08:59.706Z,17.30
2022-10-02T09:11:47.154Z,17.30
2022-10-02T09:14:54.460Z,17.30
2022-10-02T09:18:17.734Z,17.40
2022-10-02T09:21:20.277Z,17.50
2022-10-02T09:23:56.794Z,17.60
2022-10-02T09:26:51.495Z,17.60
2022-10-02T09:29:45.213Z,17.70
2022-10-02T09:32:43.393Z,17.80
2022-10-02T09:36:01.831Z,17.80
2022-10-02T09:39:02.767Z,17.90
2022-10-02T09:41:50.994Z,18.00
2022-10-02T09:44:51.193Z,18.10
2022-10-02T09:47:47.472Z,18.10
2022-10-02T09:50:32.038Z,18.20
2022-10-02T09:53:29.461Z,18.20
2022-10-02T09:56:27.106Z,18.20
2022-10-02T09:59:35.362Z,18.30
2022-10-02T10:02:29.878Z,18.40
2022-10-02T10:05:09.317Z,18.40
2022-10-02T10:07:58.534Z,18.50
2022-10-02T10:10:31.113Z,18.50
2022-10-02T10:13:17.514Z,18.50
2022-10-02T10:15:47.135Z,18.60
2022-10-02T10:18:47.759Z,18.60
2022-10-02T10:21:17.514Z,18.70
2022-10-02T10:24:32.072Z,18.80
2022-10-02T10:27:35.869Z,18.80
2022-10-02T10:30:40.264Z,18.80
2022-10-02T10:33:19.596Z,18.80
2022-10-02T10:35:56.118Z,18.90
2022-10-02T10:39:00.755Z,18.90
2022-10-02T10:41:58.823Z,18.80
2022-10-02T10:44:55.000Z,18.70
2022-10-02T10:48:00.877Z,18.60
2022-10-02T10:51:25.120Z,18.50
2022-10-02T10:54:01.916Z,18.50
2022-10-02T10:56:54.962Z,18.60
2022-10-02T10:59:55.075Z,18.60
2022-10-02T11:02:40.475Z,18.60
2022-10-02T11:05:24.110Z,18.60
2022-10-02T11:08:10.859Z,18.60
2022-10-02T11:10:47.716Z,18.60
2022-10-02T11:13:27.494Z,18.60
2022-10-02T11:16:31.987Z,18.60
2022-10-02T11:19:21.603Z,18.60
2022-10-02T11:22:25.355Z,18.50
2022-10-02T11:25:17.793Z,18.50
2022-10-02T11:27:59.880Z,18.50
2022-10-02T11:30:49.525Z,18.40
2022-10-02T11:33:54.229Z,18.40
2022-10-02T11:36:44.890Z,18.50
2022-10-02T11:39:34.128Z,18.60
2022-10-02T11:42:33.582Z,18.60
2022-10-02T11:45:12.560Z,18.60
2022-10-02T11:47:40.379Z,18.60
2022-10-02T11:50:14.118Z,18.60
2022-10-02T11:52:59.820Z,18.70
2022-10-02T11:56:03.277Z,18.70
2022-10-02T11:58:52.584Z,18.80
2022-10-02T12:01:43.008Z,18.80
2022-10-02T12:04:18.875Z,18.80
2022-10-02T12:07:13.771Z,18.90
2022-10-02T12:10:19.004Z,19.00
2022-10-02T12:12:55.911Z,19.20
2022-10-02T12:15:57.198Z,19.30
2022-10-02T12:18:32.753Z,19.30
2022-10-02T12:21:53.146Z,19.30
2022-10-02T12:24:50.360Z,19.30
2022-10-02T12:27:55.947Z,19.30
2022-10-02T12:30:42.589Z,19.30
2022-10-02T12:33:22.520Z,19.30
2022-10-02T12:36:08.435Z,19.50
2022-10-02T12:39:27.123Z,19.60
2022-10-02T12:42:14.414Z,19.50
2022-10-02T12:45:11.876Z,19.60
2022-10-02T12:48:00.121Z,19.60
2022-10-02T12:51:05.639Z,19.60
2022-10-02T12:54:01.087Z,19.60
2022-10-02T12:56:56.473Z,19.60
2022-10-02T12:59:33.981Z,19.60
2022-10-02T13:02:43.155Z,19.50
2022-10-02T13:05:49.709Z,19.50
2022-10-02T13:08:31.634Z,19.60
2022-10-02T13:11:33.739Z,19.50
2022-10-02T13:14:03.785Z,19.50
2022-10-02T13:17:18.381Z,19.60
2022-10-02T13:20:14.555Z,19.60
2022-10-02T13:23:08.505Z,19.70
2022-10-02T13:25:42.841Z,19.70
2022-10-02T13:28:44.504Z,19.80
2022-10-02T13:31:28.327Z,19.80
2022-10-02T13:34:16.565Z,19.80
2022-10-02T13:37:02.691Z,19.80
2022-10-02T13:39:46.040Z,19.90
2022-10-02T13:42:42.105Z,19.90
2022-10-02T13:45:11.712Z,19.80
2022-10-02T13:47:50.977Z,19.70
2022-10-02T13:50:34.540Z,19.70
2022-10-02T13:53:33.444Z,19.70
2022-10-02T13:56:15.416Z,19.70
2022-10-02T13:58:48.099Z,19.80
2022-10-02T14:02:10.686Z,19.80
2022-10-02T14:04:58.192Z,19.70
2022-10-02T14:07:43.420Z,19.80
2022-10-02T14:10:22.539Z,19.80
2022-10-02T14:13:04.099Z,19.80
2022-10-02T14:15:37.698Z,19.90
2022-10-02T14:18:27.593Z,19.80
2022-10-02T14:21:18.739Z,20.00
2022-10-02T14:23:48.696Z,20.00
2022-10-02T14:26:27.681Z,19.90
2022-10-02T14:29:04.942Z,19.90
2022-10-02T14:31:57.924Z,19.80
2022-10-02T14:34:36.971Z,19.70
2022-10-02T14:37:18.786Z,19.70
2022-10-02T14:39:45.734Z,19.70
2022-10-02T14:42:35.489Z,19.60
2022-10-02T14:45:43.033Z,19.60
2022-10-02T14:48:45.338Z,19.60
2022-10-02T14:51:20.897Z,19.50
2022-10-02T14:54:05.767Z,19.50
2022-10-02T14:56:35.051Z,19.40
2022-10-02T14:59:40.685Z,19.30
2022-10-02T15:02:08.732Z,19.30
2022-10-02T15:04:45.769Z,19.30
2022-10-02T15:07:16.486Z,19.20
2022-10-02T15:10:19.552Z,19.20
2022-10-02T15:13:01.137Z,19.20
2022-10-02T15:15:38.413Z,19.20
2022-10-02T15:18:31.887Z,19.20
2022-10-02T15:21:21.046Z,19.20
2022-10-02T15:23:56.553Z,19.00
2022-10-02T15:27:09.836Z,18.80
2022-10-02T15:29:42.486Z,18.80
2022-10-02T15:32:56.054Z,18.90
2022-10-02T15:36:06.846Z,18.80
2022-10-02T15:39:09.924Z,18.90
2022-10-02T15:42:00.368Z,18.90
2022-10-02T15:44:39.224Z,18.80
2022-10-02T15:47:15.494Z,18.80
2022-10-02T15:50:04.170Z,18.80
2022-10-02T15:52:45.611Z,18.80
2022-10-02T15:55:49.984Z,18.80
2022-10-02T15:58:41.058Z,18.70
2022-10-02T16:01:24.726Z,18.80
2022-10-02T16:04:33.853Z,18.80
2022-10-02T16:07:37.759Z,18.70
2022-10-02T16:10:16.705Z,18.70
2022-10-02T16:13:21.281Z,18.60
2022-10-02T16:16:16.651Z,18.60
2022-10-02T16:19:04.719Z,18.60
2022-10-02T16:21:58.649Z,18.60
2022-10-02T16:24:50.310Z,18.50
2022-10-02T16:27:32.682Z,18.50
2022-10-02T16:30:07.651Z,18.50
2022-10-02T16:32:42.161Z,18.50
2022-10-02T16:35:35.003Z,18.50
2022-10-02T16:38:17.953Z,18.40
2022-10-02T16:40:59.257Z,18.40
2022-10-02T16:43:48.873Z,18.40
2022-10-02T16:46:24.887Z,18.40
2022-10-02T16:49:23.674Z,18.30
2022-10-02T16:52:18.614Z,18.30
2022-10-02T16:55:42.794Z,18.30
2022-10-02T16:58:32.641Z,18.30
2022-10-02T17:01:07.113Z,18.20
2022-10-02T17:03:46.180Z,18.00
2022-10-02T17:06:21.646Z,18.00
2022-10-02T17:09:05.576Z,17.80
2022-10-02T17:11:38.006Z,17.80
2022-10-02T17:14:31.028Z,17.80
2022-10-02T17:17:08.542Z,17.70
2022-10-02T17:19:55.704Z,17.60
2022-10-02T17:22:45.957Z,17.60
2022-10-02T17:25:29.744Z,17.50
2022-10-02T17:28:01.450Z,17.30
2022-10-02T17:30:30.657Z,17.40
2022-10-02T17:33:13.264Z,17.30
2022-10-02T17:36:03.114Z,17.20
2022-10-02T17:39:07.460Z,17.30
2022-10-02T17:41:42.307Z,17.10
2022-10-02T17:44:26.912Z,17.00
2022-10-02T17:47:31.614Z,17.00
2022-10-02T17:50:19.588Z,17.10
2022-10-02T17:53:19.796Z,17.10
2022-10-02T17:56:29.286Z,17.10
2022-10-02T17:59:14.198Z,17.20
2022-10-02T18:01:53.000Z,17.20
2022-10-02T18:04:53.562Z,17.10
2022-10-02T18:07:41.547Z,17.10
2022-10-02T18:10:46.569Z,17.10
2022-10-02T18:13:39.195Z,17.00
2022-10-02T18:16:28.581Z,17.00
2022-10-02T18:19:09.300Z,17.00
2022-10-02T18:21:56.229Z,17.00
2022-10-02T18:24:39.531Z,17.00
2022-10-02T18:27:22.850Z,17.10
2022-10-02T18:30:19.963Z,17.10
2022-10-02T18:33:25.105Z,17.10
2022-10-02T18:36:27.795Z,17.10
2022-10-02T18:39:33.081Z,17.10
2022-10-02T18:42:39.897Z,17.10
2022-10-02T18:45:06.546Z,17.10
2022-10-02T18:47:57.850Z,17.10
2022-10-02T18:51:02.318Z,17.10
2022-10-02T18:54:05.199Z,17.10
2022-10-02T18:57:28.600Z,17.10
2022-10-02T19:00:24.517Z,17.00
2022-10-02T19:03:17.711Z,16.90
2022-10-02T19:06:35.715Z,16.80
2022-10-02T19:09:19.007Z,16.80
2022-10-02T19:12:06.328Z,16.70
2022-10-02T19:14:42.485Z,16.70
2022-10-02T19:17:22.641Z,16.70
2022-10-02T19:19:49.233Z,16.70
2022-10-02T19:22:19.480Z,16.60
2022-10-02T19:24:56.150Z,16.60
2022-10-02T19:27:31.129Z,16.70
2022-10-02T19:30:03.551Z,16.60
2022-10-02T19:32:34.189Z,16.60
2022-10-02T19:35:25.530Z,16.60
2022-10-02T19:37:58.218Z,16.60
2022-10-02T19:40:31.556Z,16.50
2022-10-02T19:43:09.361Z,16.50
2022-10-02T19:45:40.792Z,16.50
2022-10-02T19:48:10.567Z,16.40
2022-10-02T19:50:51.526Z,16.40
2022-10-02T19:53:27.511Z,16.40
2022-10-02T19:56:03.856Z,16.40
2022-10-02T19:58:44.251Z,16.30
2022-10-02T20:01:26.245Z,16.30
2022-10-02T20:03:59.469Z,16.40
2022-10-02T20:06:31.143Z,16.40
2022-10-02T20:09:16.232Z,16.40
2022-10-02T20:11:52.160Z,16.40
2022-10-02T20:14:50.234Z,16.50
2022-10-02T20:17:18.917Z,16.50
2022-10-02T20:19:53.503Z,16.50
2022-10-02T20:22:25.260Z,16.50
2022-10-02T20:25:09.207Z,16.40
2022-10-02T20:28:00.234Z,16.20
2022-10-02T20:30:35.348Z,16.20
2022-10-02T20:33:10.265Z,16.20
2022-10-02T20:35:45.173Z,16.20
2022-10-02T20:38:16.538Z,16.00
2022-10-02T20:40:48.112Z,16.10
2022-10-02T20:43:23.284Z,16.00
2022-10-02T20:46:06.551Z,16.00
2022-10-02T20:49:09.473Z,15.90
2022-10-02T20:52:07.059Z,16.10
2022-10-02T20:55:04.180Z,16.10
2022-10-02T20:58:01.834Z,16.10
2022-10-02T21:00:53.650Z,16.10
2022-10-02T21:03:42.286Z,16.20
2022-10-02T21:06:31.558Z,16.10
2022-10-02T21:09:28.998Z,16.00
2022-10-02T21:12:14.330Z,16.00
2022-10-02T21:15:09.038Z,16.00
2022-10-02T21:18:00.096Z,16.00
2022-10-02T21:20:53.781Z,15.90
2022-10-02T21:23:38.294Z,16.00
2022-10-02T21:26:36.025Z,16.00
2022-10-02T21:29:25.966Z,16.00
2022-10-02T21:32:11.436Z,16.00
2022-10-02T21:34:41.533Z,16.00
2022-10-02T21:37:29.408Z,15.90
2022-10-02T21:40:17.093Z,15.80
2022-10-02T21:43:05.316Z,15.90
2022-10-02T21:45:34.993Z,15.90
2022-10-02T21:48:24.153Z,15.80
2022-10-02T21:51:20.290Z,15.80
2022-10-02T21:54:13.333Z,15.80
2022-10-02T21:57:04.427Z,15.80
2022-10-02T22:00:21.725Z,15.80
2022-10-02T22:03:25.398Z,15.70
2022-10-02T22:05:56.019Z,15.80
2022-10-02T22:09:05.891Z,15.80
2022-10-02T22:12:10.655Z,15.80
2022-10-02T22:14:42.921Z,15.70
2022-10-02T22:17:24.801Z,15.70
2022-10-02T22:20:16.090Z,15.70
2022-10-02T22:23:07.349Z,15.80
2022-10-02T22:26:04.643Z,15.80
2022-10-02T22:28:54.164Z,15.80
2022-10-02T22:31:37.532Z,15.90
2022-10-02T22:34:23.203Z,15.80
2022-10-02T22:37:07.656Z,15.90
2022-10-02T22:39:40.609Z,15.80
2022-10-02T22:42:31.952Z,15.80
2022-10-02T22:45:11.040Z,15.90
2022-10-02T22:47:47.020Z,15.90
2022-10-02T22:50:26.347Z,15.90
2022-10-02T22:53:04.206Z,15.80
2022-10-02T22:55:52.861Z,15.80
2022-10-02T22:58:38.977Z,15.70
2022-10-02T23:01:29.406Z,15.70
2022-10-02T23:04:05.449Z,15.60
2022-10-02T23:06:50.950Z,15.60
2022-10-02T23:09:24.627Z,15.60
2022-10-02T23:12:04.883Z,15.50
2022-10-02T23:14:59.778Z,15.50
2022-10-02T23:17:39.416Z,15.40
2022-10-02T23:20:27.608Z,15.30
2022-10-02T23:23:12.550Z,15.20
2022-10-02T23:25:56.299Z,15.20
2022-10-02T23:28:35.054Z,15.20
2022-10-02T23:31:30.228Z,15.10
2022-10-02T23:34:34.481Z,15.00
2022-10-02T23:37:06.900Z,15.00
2022-10-02T23:39:53.937Z,14.90
2022-10-02T23:42:28.067Z,14.90
2022-10-02T23:45:10.331Z,14.80
2022-10-02T23:48:00.236Z,14.80
2022-10-02T23:50:31.682Z,14.90
2022-10-02T23:53:37.486Z,14.90
2022-10-02T23:56:47.009Z,14.90
2022-10-02T23:59:44.341Z,14.90
